Time;durP1;ratioP1;P1;durP2;ratioP2;P2;SDS_P1;SDS_P2;PMS_P1;PMS_P2;Temp;Humidity;BMP_temperature;BMP_pressure;BME280_temperature;BME280_humidity;BME280_pressure;Samples;Min_cycle;Max_cycle;Signal;HPM_P1;HPM_P2
2022/03/19 00:00:46;;;;;;;16.08;2.88;;;5.70;99.90;;;;;;5013462;28;20041;-74
2022/03/19 00:03:12;;;;;;;11.93;2.40;;;5.50;99.90;;;;;;5013233;28;20065;-74
2022/03/19 00:05:38;;;;;;;16.45;3.38;;;5.40;99.90;;;;;;4997944;28;20490;-74
2022/03/19 00:08:04;;;;;;;11.25;2.58;;;5.50;99.90;;;;;;5013245;28;20096;-74
2022/03/19 00:10:31;;;;;;;10.25;2.50;;;5.40;99.90;;;;;;5013203;28;20045;-74
2022/03/19 00:12:58;;;;;;;12.63;2.60;;;5.30;99.90;;;;;;5011927;28;20081;-74
2022/03/19 00:15:24;;;;;;;15.75;2.40;;;5.30;99.90;;;;;;4998110;28;20429;-74
2022/03/19 00:17:49;;;;;;;13.60;2.63;;;5.10;99.90;;;;;;4996934;28;20038;-74
2022/03/19 00:20:15;;;;;;;10.75;2.50;;;5.20;99.90;;;;;;4996963;28;20038;-74
2022/03/19 00:22:40;;;;;;;13.30;2.30;;;5.20;99.90;;;;;;5013032;28;20040;-74
2022/03/19 00:25:10;;;;;;;12.68;2.80;;;5.20;99.90;;;;;;5014138;28;20037;-74
2022/03/19 00:27:35;;;;;;;12.50;3.05;;;5.20;99.90;;;;;;4997628;28;20092;-74
2022/03/19 00:30:01;;;;;;;12.77;2.53;;;5.20;99.90;;;;;;5009174;28;20042;-74
2022/03/19 00:32:27;;;;;;;9.98;2.75;;;5.20;99.90;;;;;;4994339;28;20034;-74
2022/03/19 00:34:52;;;;;;;9.40;2.10;;;5.20;99.90;;;;;;5010195;28;20038;-74
2022/03/19 00:37:18;;;;;;;13.73;2.95;;;5.30;99.90;;;;;;5013766;28;20041;-74
2022/03/19 00:39:43;;;;;;;7.95;2.20;;;5.20;99.90;;;;;;4995085;28;20042;-74
2022/03/19 00:42:10;;;;;;;11.18;2.60;;;5.20;99.90;;;;;;5012001;28;20089;-74
2022/03/19 00:44:35;;;;;;;11.43;3.03;;;5.20;99.90;;;;;;4996505;28;20041;-74
2022/03/19 00:47:01;;;;;;;15.40;2.95;;;5.20;99.90;;;;;;4997239;28;20053;-74
2022/03/19 00:49:26;;;;;;;12.10;3.00;;;5.20;99.90;;;;;;5012717;28;20121;-74
2022/03/19 00:51:52;;;;;;;13.15;2.65;;;5.30;99.90;;;;;;5013530;28;20046;-74
2022/03/19 00:54:17;;;;;;;14.50;2.95;;;5.30;99.90;;;;;;4996380;28;20120;-74
2022/03/19 00:56:45;;;;;;;12.13;2.38;;;5.30;99.90;;;;;;5013350;28;20100;-74
2022/03/19 00:59:11;;;;;;;9.27;2.00;;;5.20;99.90;;;;;;5012325;28;20038;-74
2022/03/19 01:01:36;;;;;;;13.57;2.92;;;5.20;99.90;;;;;;4997440;28;20125;-74
2022/03/19 01:04:02;;;;;;;10.07;2.20;;;5.20;99.90;;;;;;4982814;28;20597;-74
2022/03/19 01:06:28;;;;;;;11.10;2.45;;;5.20;99.90;;;;;;5013436;28;20049;-74
2022/03/19 01:08:53;;;;;;;11.98;2.67;;;5.10;99.90;;;;;;4992753;28;20043;-74
2022/03/19 01:11:23;;;;;;;11.60;2.83;;;5.10;99.90;;;;;;5007759;28;20077;-74
2022/03/19 01:13:50;;;;;;;10.43;2.33;;;5.10;99.90;;;;;;4995128;28;20087;-75
2022/03/19 01:16:18;;;;;;;12.00;2.30;;;5.10;99.90;;;;;;5029684;28;20033;-74
2022/03/19 01:18:49;;;;;;;8.75;2.08;;;5.10;99.90;;;;;;5011206;28;20042;-74
2022/03/19 01:21:15;;;;;;;8.80;2.17;;;5.10;99.90;;;;;;5012535;28;20077;-74
2022/03/19 01:23:41;;;;;;;9.98;2.25;;;5.10;99.90;;;;;;4995393;28;20491;-74
2022/03/19 01:26:07;;;;;;;8.07;1.85;;;5.10;99.90;;;;;;5011718;28;20053;-74
2022/03/19 01:28:32;;;;;;;11.48;2.50;;;5.00;99.90;;;;;;5012895;28;20050;-74
2022/03/19 01:30:58;;;;;;;10.93;2.25;;;5.10;99.90;;;;;;5011730;28;20410;-74
2022/03/19 01:33:24;;;;;;;10.98;2.03;;;5.10;99.90;;;;;;5013023;28;20395;-74
2022/03/19 01:35:49;;;;;;;11.27;2.30;;;5.10;99.90;;;;;;5008588;28;20038;-75
2022/03/19 01:38:15;;;;;;;10.85;2.60;;;5.00;99.90;;;;;;4989528;28;20038;-74
2022/03/19 01:40:40;;;;;;;11.38;3.25;;;5.10;99.90;;;;;;4994331;28;20045;-74
2022/03/19 01:43:06;;;;;;;10.45;2.40;;;5.00;99.90;;;;;;5012590;28;20434;-74
2022/03/19 01:45:32;;;;;;;8.45;2.35;;;4.90;99.90;;;;;;4992041;28;20052;-74
2022/03/19 01:47:57;;;;;;;10.50;2.50;;;4.80;99.90;;;;;;5009208;28;20128;-74
2022/03/19 01:50:24;;;;;;;7.90;2.38;;;4.70;99.90;;;;;;5008335;28;20038;-74
2022/03/19 01:52:51;;;;;;;10.35;2.38;;;4.80;99.90;;;;;;4993153;28;20062;-74
2022/03/19 01:55:20;;;;;;;12.77;2.85;;;4.80;99.90;;;;;;4992050;28;20077;-74
2022/03/19 01:57:47;;;;;;;12.63;2.50;;;4.90;99.90;;;;;;4992753;28;20034;-74
2022/03/19 02:00:22;;;;;;;12.85;3.05;;;4.90;99.90;;;;;;4999618;28;20518;-74
2022/03/19 02:02:49;;;;;;;16.05;3.22;;;4.80;99.90;;;;;;4996044;28;20033;-74
2022/03/19 02:05:18;;;;;;;10.23;2.42;;;4.80;99.90;;;;;;5011483;28;20061;-74
2022/03/19 02:07:46;;;;;;;14.40;3.40;;;5.00;99.90;;;;;;5003575;28;20037;-74
2022/03/19 02:10:16;;;;;;;11.68;2.60;;;4.90;99.90;;;;;;5011327;28;20037;-74
2022/03/19 02:12:43;;;;;;;11.63;2.60;;;4.90;99.90;;;;;;4995102;28;20034;-74
2022/03/19 02:15:09;;;;;;;11.27;2.95;;;4.80;99.90;;;;;;4995279;28;20129;-74
2022/03/19 02:17:35;;;;;;;10.77;3.05;;;4.90;99.90;;;;;;5012138;28;20041;-74
2022/03/19 02:20:03;;;;;;;11.70;2.78;;;4.80;99.90;;;;;;5011241;28;20494;-74
2022/03/19 02:22:29;;;;;;;12.27;2.88;;;4.80;99.90;;;;;;5012148;28;20550;-74
2022/03/19 02:27:41;;;;;;;11.18;2.70;;;4.60;99.90;;;;;;5028520;28;20046;-74
2022/03/19 02:30:10;;;;;;;11.05;2.53;;;4.60;99.90;;;;;;5027500;28;20129;-74
2022/03/19 02:32:40;;;;;;;11.60;3.05;;;4.60;99.90;;;;;;4995981;28;20406;-74
2022/03/19 02:35:06;;;;;;;15.55;3.22;;;4.70;99.90;;;;;;5011109;28;20371;-74
2022/03/19 02:37:41;;;;;;;12.23;3.00;;;4.60;99.90;;;;;;4998602;28;20482;-74
2022/03/19 02:40:15;;;;;;;13.85;3.85;;;4.50;99.90;;;;;;5014599;28;20042;-73
2022/03/19 02:42:41;;;;;;;12.85;3.75;;;4.40;99.90;;;;;;5016031;28;20046;-74
2022/03/19 02:45:07;;;;;;;12.65;3.45;;;4.40;99.90;;;;;;5015214;28;20402;-74
2022/03/19 02:47:33;;;;;;;13.57;3.42;;;4.30;99.90;;;;;;5015736;28;20553;-74
2022/03/19 02:49:59;;;;;;;11.75;4.32;;;4.30;99.90;;;;;;5014621;28;20398;-73
2022/03/19 02:52:25;;;;;;;16.15;3.92;;;4.20;99.90;;;;;;5015720;28;20038;-73
2022/03/19 02:54:52;;;;;;;17.20;3.83;;;4.20;99.90;;;;;;5014673;28;20048;-74
2022/03/19 02:57:17;;;;;;;12.02;3.38;;;4.20;99.90;;;;;;4998579;28;20494;-74
2022/03/19 02:59:43;;;;;;;13.70;4.32;;;4.20;99.90;;;;;;5013497;28;20050;-74
2022/03/19 03:02:08;;;;;;;12.88;3.42;;;4.30;99.90;;;;;;4999218;28;20046;-74
2022/03/19 03:04:34;;;;;;;14.07;3.60;;;4.10;99.90;;;;;;5014382;28;20034;-74
2022/03/19 03:07:03;;;;;;;11.48;3.47;;;4.00;99.90;;;;;;5015439;28;20042;-74
2022/03/19 03:09:30;;;;;;;12.05;3.47;;;4.00;99.90;;;;;;5011552;28;20041;-74
2022/03/19 03:11:58;;;;;;;15.20;4.10;;;3.90;99.90;;;;;;4996099;28;20096;-74
2022/03/19 03:14:24;;;;;;;12.43;3.28;;;3.90;99.90;;;;;;5000928;28;20033;-74
2022/03/19 03:16:52;;;;;;;11.43;3.65;;;3.90;99.90;;;;;;4998844;28;20084;-74
2022/03/19 03:19:19;;;;;;;13.27;3.40;;;3.80;99.90;;;;;;4997901;28;20073;-74
2022/03/19 03:21:47;;;;;;;13.73;3.42;;;3.80;99.90;;;;;;4998865;28;20046;-74
2022/03/19 03:24:13;;;;;;;10.77;3.00;;;3.70;99.90;;;;;;5014160;28;20046;-74
2022/03/19 03:26:40;;;;;;;14.10;3.47;;;3.70;99.90;;;;;;5015062;28;20042;-74
2022/03/19 03:29:06;;;;;;;13.02;3.70;;;3.70;99.90;;;;;;5013905;28;20511;-75
2022/03/19 03:31:32;;;;;;;12.10;3.58;;;3.70;99.90;;;;;;4998673;28;20045;-74
2022/03/19 03:33:58;;;;;;;10.93;3.60;;;3.60;99.90;;;;;;5016019;28;20037;-74
2022/03/19 03:36:24;;;;;;;12.93;3.80;;;3.60;99.90;;;;;;5014412;28;20033;-74
2022/03/19 03:38:50;;;;;;;13.93;4.10;;;3.60;99.90;;;;;;5012905;28;20391;-74
2022/03/19 03:41:16;;;;;;;12.25;3.47;;;3.60;99.90;;;;;;4996617;28;20085;-74
2022/03/19 03:43:42;;;;;;;12.30;3.58;;;3.50;99.90;;;;;;5014789;28;20049;-74
2022/03/19 03:46:08;;;;;;;16.00;4.43;;;3.60;99.90;;;;;;5013790;28;20037;-74
2022/03/19 03:48:35;;;;;;;12.05;3.70;;;3.60;99.90;;;;;;5014241;28;20103;-75
2022/03/19 03:51:02;;;;;;;13.85;3.97;;;3.60;99.90;;;;;;4995999;28;20395;-75
2022/03/19 03:53:28;;;;;;;13.27;3.97;;;3.60;99.90;;;;;;5013849;28;20041;-74
2022/03/19 03:55:54;;;;;;;15.63;4.80;;;3.40;99.90;;;;;;4998293;28;20120;-74
2022/03/19 03:58:20;;;;;;;13.80;3.60;;;3.40;99.90;;;;;;4997134;28;20033;-74
2022/03/19 04:00:46;;;;;;;15.80;3.80;;;3.40;99.90;;;;;;4998295;28;20037;-74
2022/03/19 04:03:11;;;;;;;13.57;4.30;;;3.40;99.90;;;;;;5013636;28;20042;-74
2022/03/19 04:05:37;;;;;;;11.63;4.25;;;3.40;99.90;;;;;;5014394;28;20046;-74
2022/03/19 04:08:04;;;;;;;14.75;4.40;;;3.40;99.90;;;;;;5013433;28;20069;-74
2022/03/19 04:10:31;;;;;;;13.13;4.18;;;3.40;99.90;;;;;;5010872;28;20049;-74
2022/03/19 04:12:57;;;;;;;14.70;3.85;;;3.40;99.90;;;;;;4997209;28;20057;-74
2022/03/19 04:15:23;;;;;;;14.07;4.78;;;3.50;99.90;;;;;;5014424;28;20095;-74
2022/03/19 04:17:49;;;;;;;12.38;4.40;;;3.40;99.90;;;;;;4996794;28;20045;-74
2022/03/19 04:20:16;;;;;;;15.82;4.82;;;3.40;99.90;;;;;;5029446;28;20121;-74
2022/03/19 04:22:46;;;;;;;14.30;4.63;;;3.30;99.90;;;;;;5013161;28;20120;-74
2022/03/19 04:25:17;;;;;;;11.75;4.38;;;3.30;99.90;;;;;;4997909;28;20025;-74
2022/03/19 04:27:46;;;;;;;11.80;4.32;;;3.40;99.90;;;;;;4996686;28;20133;-75
2022/03/19 04:30:13;;;;;;;11.88;4.30;;;3.40;99.90;;;;;;5030451;28;20042;-74
2022/03/19 04:32:44;;;;;;;10.13;3.90;;;3.50;99.90;;;;;;5013021;28;20390;-74
2022/03/19 04:38:03;;;;;;;15.48;4.38;;;3.50;99.90;;;;;;5029098;28;20077;-74
2022/03/19 04:40:30;;;;;;;15.57;4.40;;;3.50;99.90;;;;;;5011906;28;20046;-73
2022/03/19 04:42:56;;;;;;;15.30;4.40;;;3.60;99.90;;;;;;5029303;28;20056;-74
2022/03/19 04:45:22;;;;;;;12.68;4.53;;;3.50;99.90;;;;;;4995709;28;20109;-74
2022/03/19 04:47:48;;;;;;;15.23;4.57;;;3.50;99.90;;;;;;5030078;28;20045;-74
2022/03/19 04:50:13;;;;;;;16.35;4.95;;;3.50;99.90;;;;;;5012328;28;20486;-74
2022/03/19 04:52:40;;;;;;;18.25;4.82;;;3.40;99.90;;;;;;4993031;28;20057;-74
2022/03/19 04:55:07;;;;;;;15.32;4.45;;;3.40;99.90;;;;;;4994864;28;20038;-74
2022/03/19 04:57:34;;;;;;;14.95;4.75;;;3.40;99.90;;;;;;5028932;28;20081;-74
2022/03/19 05:00:00;;;;;;;13.57;4.32;;;3.50;99.90;;;;;;4993771;28;20042;-74
2022/03/19 05:02:25;;;;;;;17.35;4.97;;;3.40;99.90;;;;;;4995913;28;20069;-73
2022/03/19 05:04:52;;;;;;;15.93;4.95;;;3.50;99.90;;;;;;4996993;28;20042;-74
2022/03/19 05:07:19;;;;;;;14.90;4.65;;;3.50;99.90;;;;;;5028962;28;20132;-74
2022/03/19 05:12:36;;;;;;;15.07;4.90;;;3.50;99.90;;;;;;5028727;28;20487;-74
2022/03/19 05:15:02;;;;;;;15.32;4.60;;;3.50;99.90;;;;;;4996882;28;20557;-74
2022/03/19 05:17:28;;;;;;;14.60;4.78;;;3.40;99.90;;;;;;5012179;28;20437;-73
2022/03/19 05:19:53;;;;;;;12.38;4.20;;;3.40;99.90;;;;;;5013198;28;20141;-74
2022/03/19 05:22:19;;;;;;;13.75;4.38;;;3.40;99.90;;;;;;5011984;28;20078;-73
2022/03/19 05:24:45;;;;;;;14.40;4.85;;;3.40;99.90;;;;;;4996615;28;20402;-74
2022/03/19 05:27:11;;;;;;;12.65;4.88;;;3.40;99.90;;;;;;4994857;28;20037;-74
2022/03/19 05:29:37;;;;;;;13.90;5.00;;;3.40;99.90;;;;;;4996350;28;20477;-73
2022/03/19 05:32:04;;;;;;;14.45;5.30;;;3.40;99.90;;;;;;5011099;28;20083;-74
2022/03/19 05:34:30;;;;;;;15.07;4.85;;;3.40;99.90;;;;;;4996534;28;20081;-74
2022/03/19 05:36:56;;;;;;;14.10;4.88;;;3.30;99.90;;;;;;4995285;28;20065;-74
2022/03/19 05:39:22;;;;;;;14.63;4.50;;;3.30;99.90;;;;;;4992212;28;20042;-74
2022/03/19 05:41:47;;;;;;;13.95;5.07;;;3.20;99.90;;;;;;5011050;28;20056;-74
2022/03/19 05:44:13;;;;;;;13.48;4.90;;;3.30;99.90;;;;;;5012644;28;20096;-74
2022/03/19 05:46:39;;;;;;;15.13;5.15;;;3.30;99.90;;;;;;5011375;28;20113;-74
2022/03/19 05:49:05;;;;;;;14.85;5.53;;;3.30;99.90;;;;;;5012413;28;20038;-74
2022/03/19 05:51:30;;;;;;;14.32;5.57;;;3.20;99.90;;;;;;5011587;28;20066;-74
2022/03/19 05:53:56;;;;;;;14.98;6.30;;;3.30;99.90;;;;;;5012750;28;20041;-74
2022/03/19 05:56:21;;;;;;;13.13;5.35;;;3.30;99.90;;;;;;5012715;28;20030;-74
2022/03/19 05:58:47;;;;;;;17.45;5.40;;;3.30;99.90;;;;;;5011391;28;20578;-73
2022/03/19 06:01:12;;;;;;;15.88;6.05;;;3.20;99.90;;;;;;4996089;28;20056;-74
2022/03/19 06:03:38;;;;;;;14.70;6.13;;;3.30;99.90;;;;;;5011415;28;20073;-74
2022/03/19 06:06:04;;;;;;;15.85;5.80;;;3.20;99.90;;;;;;5011143;28;20141;-74
2022/03/19 06:08:30;;;;;;;19.38;6.38;;;3.20;99.90;;;;;;5012182;28;20042;-74
2022/03/19 06:10:56;;;;;;;15.13;5.85;;;3.30;99.90;;;;;;5009000;28;20529;-74
2022/03/19 06:13:22;;;;;;;17.02;5.90;;;3.30;99.90;;;;;;5012314;28;20077;-74
2022/03/19 06:15:47;;;;;;;15.93;5.68;;;3.30;99.90;;;;;;5027530;28;20077;-74
2022/03/19 06:18:13;;;;;;;17.15;5.97;;;3.50;99.90;;;;;;5012444;28;20046;-74
2022/03/19 06:20:39;;;;;;;13.77;5.95;;;3.50;99.90;;;;;;5009920;28;20088;-74
2022/03/19 06:23:04;;;;;;;15.82;6.30;;;3.50;99.90;;;;;;5012134;28;20050;-74
2022/03/19 06:25:30;;;;;;;17.35;6.30;;;3.50;99.90;;;;;;5010246;28;20037;-74
2022/03/19 06:27:55;;;;;;;17.73;6.47;;;3.60;99.90;;;;;;5012013;28;20120;-74
2022/03/19 06:30:21;;;;;;;18.63;6.10;;;3.60;99.90;;;;;;5009190;28;20168;-74
2022/03/19 06:32:48;;;;;;;16.80;5.93;;;3.60;99.90;;;;;;5011046;28;20498;-74
2022/03/19 06:37:19;;;;;;;17.50;6.55;;;3.60;99.90;;;;;;5011994;28;20042;-74
2022/03/19 06:37:59;;;;;;;18.58;6.35;;;3.70;99.90;;;;;;5010303;28;20042;-74
2022/03/19 06:40:25;;;;;;;16.20;6.38;;;3.70;99.90;;;;;;4993801;28;20088;-74
2022/03/19 06:42:51;;;;;;;21.83;7.22;;;3.80;99.90;;;;;;5010490;28;20495;-74
2022/03/19 06:45:17;;;;;;;16.58;6.03;;;3.90;99.90;;;;;;5008070;28;20120;-74
2022/03/19 06:47:42;;;;;;;18.40;6.95;;;3.90;99.90;;;;;;4995599;28;20490;-74
2022/03/19 06:50:08;;;;;;;16.30;6.40;;;4.00;99.90;;;;;;5007556;28;20042;-74
2022/03/19 06:52:34;;;;;;;16.35;7.22;;;4.10;99.90;;;;;;4998792;28;20038;-74
2022/03/19 06:54:59;;;;;;;16.75;7.05;;;4.10;99.90;;;;;;4995510;28;20042;-74
2022/03/19 06:57:25;;;;;;;17.50;6.72;;;4.20;99.90;;;;;;4989080;28;20053;-74
2022/03/19 06:59:50;;;;;;;18.95;6.65;;;4.30;99.90;;;;;;5010410;28;20447;-74
2022/03/19 07:02:16;;;;;;;15.88;7.03;;;4.40;99.90;;;;;;5001685;28;20460;-74
2022/03/19 07:04:41;;;;;;;19.23;7.22;;;4.50;99.90;;;;;;5007564;28;20038;-74
2022/03/19 07:07:07;;;;;;;14.15;5.93;;;4.50;99.90;;;;;;5028077;28;20034;-74
2022/03/19 07:09:32;;;;;;;16.92;6.15;;;4.60;99.90;;;;;;5010348;28;20466;-74
2022/03/19 07:11:58;;;;;;;14.75;5.88;;;4.70;99.90;;;;;;5023264;28;20045;-74
2022/03/19 07:14:23;;;;;;;15.50;5.93;;;4.80;99.90;;;;;;4986071;28;20034;-74
2022/03/19 07:16:49;;;;;;;16.52;6.50;;;4.90;99.90;;;;;;5008706;28;20482;-74
2022/03/19 07:19:15;;;;;;;19.45;6.45;;;4.90;99.90;;;;;;5010417;28;20042;-74
2022/03/19 07:21:41;;;;;;;16.02;6.60;;;5.00;99.90;;;;;;4994522;28;20038;-73
2022/03/19 07:24:07;;;;;;;15.70;6.32;;;5.10;99.90;;;;;;4999173;28;20041;-73
2022/03/19 07:26:33;;;;;;;17.63;5.85;;;5.20;99.90;;;;;;5011761;28;20217;-73
2022/03/19 07:29:00;;;;;;;17.67;6.18;;;5.20;99.90;;;;;;5014977;28;20034;-73
2022/03/19 07:31:25;;;;;;;15.68;5.93;;;5.30;99.90;;;;;;4998198;28;20399;-73
2022/03/19 07:33:51;;;;;;;15.48;5.88;;;5.40;99.90;;;;;;5015021;28;20042;-73
2022/03/19 07:36:19;;;;;;;12.35;5.13;;;5.50;99.90;;;;;;5014639;28;20061;-73
2022/03/19 07:38:45;;;;;;;18.75;5.32;;;5.60;99.90;;;;;;5031470;28;20046;-73
2022/03/19 07:43:54;;;;;;;14.98;5.90;;;5.80;99.90;;;;;;5031317;28;20128;-74
2022/03/19 07:46:22;;;;;;;15.43;5.07;;;5.90;99.90;;;;;;4998323;28;20387;-73
2022/03/19 07:48:48;;;;;;;17.23;6.50;;;6.10;99.90;;;;;;5014964;28;20465;-73
2022/03/19 07:51:14;;;;;;;21.50;6.22;;;6.20;99.90;;;;;;4997766;28;20038;-73
2022/03/19 07:53:39;;;;;;;15.80;5.80;;;6.30;99.90;;;;;;5014639;28;20046;-73
2022/03/19 07:56:06;;;;;;;17.80;6.32;;;6.30;99.90;;;;;;4996121;28;20037;-73
2022/03/19 07:58:31;;;;;;;16.45;6.00;;;6.50;99.90;;;;;;5030212;28;20092;-73
2022/03/19 08:00:57;;;;;;;12.88;4.97;;;6.60;99.90;;;;;;4996332;28;20446;-73
2022/03/19 08:03:22;;;;;;;20.63;6.00;;;6.60;99.90;;;;;;4998225;28;20073;-74
2022/03/19 08:05:48;;;;;;;13.07;5.05;;;6.70;99.90;;;;;;5014426;28;20092;-73
2022/03/19 08:08:14;;;;;;;19.00;4.70;;;6.80;99.90;;;;;;4997516;28;20505;-73
2022/03/19 08:10:40;;;;;;;15.93;5.05;;;6.90;99.90;;;;;;5011964;28;20038;-74
2022/03/19 08:13:07;;;;;;;14.80;4.80;;;7.10;99.90;;;;;;5012776;28;20034;-73
2022/03/19 08:15:34;;;;;;;16.73;4.50;;;7.10;99.90;;;;;;5030766;28;20049;-73
2022/03/19 08:18:00;;;;;;;13.25;4.65;;;7.40;99.90;;;;;;4995774;28;20030;-72
2022/03/19 08:20:27;;;;;;;14.30;3.95;;;7.50;99.90;;;;;;4994315;28;20049;-73
2022/03/19 08:22:52;;;;;;;14.30;4.22;;;7.60;99.90;;;;;;5008603;28;20539;-73
2022/03/19 08:25:18;;;;;;;14.55;3.85;;;7.70;99.90;;;;;;5011549;28;20037;-74
2022/03/19 08:27:45;;;;;;;11.13;3.38;;;7.80;99.90;;;;;;5013982;28;20044;-73
2022/03/19 08:30:12;;;;;;;15.57;4.50;;;8.10;99.90;;;;;;5011699;28;20050;-73
2022/03/19 08:32:37;;;;;;;14.27;4.07;;;8.20;99.90;;;;;;5013393;28;20036;-73
2022/03/19 08:35:03;;;;;;;14.48;3.80;;;8.10;99.90;;;;;;4996205;28;20041;-73
2022/03/19 08:37:28;;;;;;;11.95;3.30;;;8.20;99.90;;;;;;4997789;28;20065;-73
2022/03/19 08:42:39;;;;;;;12.48;3.67;;;8.50;99.90;;;;;;5030068;28;20499;-73
2022/03/19 08:45:05;;;;;;;12.98;3.00;;;8.60;99.90;;;;;;5013723;28;20042;-73
2022/03/19 08:47:31;;;;;;;9.95;3.10;;;8.70;99.90;;;;;;5013009;28;20153;-73
2022/03/19 08:49:56;;;;;;;13.65;3.53;;;8.90;99.90;;;;;;5013452;28;20041;-73
2022/03/19 08:52:22;;;;;;;14.63;4.25;;;9.00;99.90;;;;;;4996638;28;20130;-73
2022/03/19 08:54:48;;;;;;;14.05;3.53;;;8.90;99.90;;;;;;4997240;28;20483;-73
2022/03/19 08:57:14;;;;;;;12.52;4.45;;;9.00;99.90;;;;;;4994934;28;20049;-73
2022/03/19 08:59:40;;;;;;;16.02;3.88;;;9.10;99.70;;;;;;5012730;28;20095;-73
2022/03/19 09:02:05;;;;;;;12.45;3.30;;;9.30;99.90;;;;;;4992320;28;20050;-73
2022/03/19 09:04:34;;;;;;;11.82;3.28;;;9.50;99.90;;;;;;5008181;28;20048;-73
2022/03/19 09:06:59;;;;;;;13.98;3.28;;;9.50;99.90;;;;;;5029169;28;20041;-73
2022/03/19 09:09:25;;;;;;;13.05;3.25;;;9.60;99.90;;;;;;5013141;28;20121;-73
2022/03/19 09:11:51;;;;;;;13.70;3.33;;;9.70;99.90;;;;;;5012207;28;20049;-73
2022/03/19 09:14:18;;;;;;;13.95;3.20;;;9.90;99.90;;;;;;5025489;28;20037;-73
2022/03/19 09:16:44;;;;;;;13.52;2.92;;;9.90;98.80;;;;;;5008224;28;20052;-73
2022/03/19 09:19:09;;;;;;;13.60;3.30;;;10.00;99.30;;;;;;5012504;28;20494;-73
2022/03/19 09:21:36;;;;;;;13.95;3.10;;;9.90;97.80;;;;;;4995920;28;20040;-73
2022/03/19 09:24:04;;;;;;;13.93;2.80;;;10.10;99.20;;;;;;5000909;28;20038;-73
2022/03/19 09:26:30;;;;;;;11.63;3.00;;;10.30;99.70;;;;;;5009761;28;20038;-73
2022/03/19 09:28:56;;;;;;;10.68;2.63;;;10.50;96.50;;;;;;5012734;28;20042;-73
2022/03/19 09:31:22;;;;;;;11.50;2.40;;;10.30;95.80;;;;;;5009759;28;20421;-73
2022/03/19 09:33:47;;;;;;;11.60;2.85;;;10.60;96.30;;;;;;4999315;28;20034;-73
2022/03/19 09:36:14;;;;;;;10.43;3.05;;;10.50;95.10;;;;;;5007935;28;20445;-73
2022/03/19 09:38:40;;;;;;;12.05;2.92;;;10.40;91.90;;;;;;5028175;28;20052;-73
2022/03/19 09:41:07;;;;;;;12.50;3.15;;;10.40;91.00;;;;;;5025235;28;20053;-73
2022/03/19 09:43:33;;;;;;;16.50;2.70;;;10.40;94.00;;;;;;5032157;28;20098;-73
2022/03/19 09:45:58;;;;;;;11.45;3.03;;;10.40;83.50;;;;;;5047647;28;20041;-73
2022/03/19 09:48:24;;;;;;;12.68;2.90;;;10.60;94.80;;;;;;5028600;28;20252;-74
2022/03/19 09:50:51;;;;;;;10.70;2.30;;;10.60;83.70;;;;;;5031843;28;20124;-73
2022/03/19 09:53:20;;;;;;;10.70;3.05;;;10.60;82.50;;;;;;5030136;28;20037;-73
2022/03/19 09:55:46;;;;;;;10.07;2.40;;;10.60;89.80;;;;;;5014324;28;20125;-73
2022/03/19 09:58:15;;;;;;;10.88;2.50;;;10.60;89.40;;;;;;5024505;28;20033;-74
2022/03/19 10:00:41;;;;;;;14.88;3.88;;;10.70;91.60;;;;;;5031142;28;20099;-75
2022/03/19 10:03:09;;;;;;;10.63;2.40;;;10.60;85.90;;;;;;5015387;28;20040;-74
2022/03/19 10:08:37;;;;;;;10.82;2.83;;;10.80;86.80;;;;;;5031695;28;20136;-74
2022/03/19 10:11:07;;;;;;;8.88;2.72;;;11.10;91.10;;;;;;5031745;28;20076;-74
2022/03/19 10:13:35;;;;;;;11.23;2.85;;;11.10;76.50;;;;;;5031666;28;20059;-74
2022/03/19 10:16:01;;;;;;;12.52;2.90;;;11.10;87.70;;;;;;5031433;28;20122;-74
2022/03/19 10:18:28;;;;;;;11.48;3.47;;;11.20;90.60;;;;;;5027802;28;20126;-74
2022/03/19 10:20:54;;;;;;;11.02;2.90;;;11.20;87.60;;;;;;5031346;28;20543;-74
2022/03/19 10:23:49;;;;;;;11.38;2.78;;;11.20;82.60;;;;;;5031509;28;20037;-74
2022/03/19 10:26:28;;;;;;;9.30;2.45;;;11.50;86.00;;;;;;4988602;28;20060;-75
2022/03/19 10:29:02;;;;;;;9.88;2.42;;;11.50;73.20;;;;;;5031613;28;20045;-74
2022/03/19 10:31:33;;;;;;;11.00;3.45;;;11.50;82.10;;;;;;5014822;28;20099;-74
2022/03/19 10:33:59;;;;;;;7.68;1.90;;;11.70;80.30;;;;;;5014966;28;20033;-74
2022/03/19 10:36:35;;;;;;;8.20;2.22;;;11.70;78.20;;;;;;5031564;28;20444;-74
2022/03/19 10:39:18;;;;;;;10.10;2.55;;;11.80;76.60;;;;;;5031217;28;20052;-74
2022/03/19 10:41:44;;;;;;;;;;;11.70;74.20;;;;;;5028175;28;20054;-74
2022/03/19 10:44:16;;;;;;;11.77;3.08;;;11.70;72.60;;;;;;5011758;28;19924;-75
2022/03/19 10:46:53;;;;;;;;;;;11.50;72.50;;;;;;5012051;28;20129;-74
2022/03/19 10:49:22;;;;;;;12.25;2.90;;;11.70;77.80;;;;;;5027775;28;20393;-74
2022/03/19 10:51:51;;;;;;;10.88;2.45;;;11.80;71.40;;;;;;5011719;28;20084;-74
2022/03/19 10:54:17;;;;;;;8.82;2.30;;;11.90;73.80;;;;;;5011366;28;20042;-75
2022/03/19 10:56:44;;;;;;;9.50;2.65;;;11.80;66.50;;;;;;5016966;28;20084;-74
2022/03/19 10:59:10;;;;;;;9.60;2.40;;;11.80;68.60;;;;;;5035024;28;20513;-74
2022/03/19 11:01:36;;;;;;;7.35;2.20;;;11.80;68.80;;;;;;5035287;28;20045;-74
2022/03/19 11:04:04;;;;;;;10.90;2.22;;;11.90;73.50;;;;;;5034852;28;20044;-75
2022/03/19 11:06:36;;;;;;;8.93;2.50;;;11.90;65.60;;;;;;5034784;28;20077;-74
2022/03/19 11:09:11;;;;;;;9.25;2.28;;;12.00;65.80;;;;;;5032149;28;20588;-74
2022/03/19 11:11:59;;;;;;;7.97;2.42;;;12.20;67.50;;;;;;5014976;28;20034;-74
2022/03/19 11:14:28;;;;;;;10.20;3.20;;;12.30;68.70;;;;;;5026113;28;20065;-75
2022/03/19 11:19:47;;;;;;;6.03;2.45;;;12.20;72.00;;;;;;5034951;28;20049;-74
2022/03/19 11:22:13;;;;;;;6.13;1.90;;;12.40;71.00;;;;;;5034715;28;20049;-69
2022/03/19 11:24:47;;;;;;;8.85;2.10;;;12.40;65.10;;;;;;5030877;28;20486;-74
2022/03/19 11:27:14;;;;;;;7.60;2.10;;;12.40;66.80;;;;;;5032260;28;20045;-75
2022/03/19 11:29:40;;;;;;;8.85;2.10;;;12.50;67.50;;;;;;5034450;28;20043;-74
2022/03/19 11:32:06;;;;;;;7.68;2.45;;;12.50;70.40;;;;;;5033084;28;20405;-74
2022/03/19 11:34:46;;;;;;;6.93;1.98;;;12.50;70.60;;;;;;5050454;28;20040;-74
2022/03/19 11:37:11;;;;;;;9.05;2.28;;;12.50;64.80;;;;;;5031015;28;20037;-74
2022/03/19 11:39:37;;;;;;;8.68;2.17;;;12.50;61.10;;;;;;5033172;28;20517;-74
2022/03/19 11:42:08;;;;;;;8.80;1.98;;;12.40;64.80;;;;;;5031885;28;20123;-74
2022/03/19 11:44:48;;;;;;;7.67;1.80;;;12.40;61.70;;;;;;5030821;28;20049;-74
2022/03/19 11:47:16;;;;;;;4.55;1.60;;;12.30;57.40;;;;;;5033834;28;20052;-74
2022/03/19 11:49:56;;;;;;;8.70;2.33;;;12.20;60.70;;;;;;5033337;28;20033;-74
2022/03/19 11:52:24;;;;;;;7.10;1.70;;;12.20;61.50;;;;;;5047675;28;20057;-74
2022/03/19 11:55:04;;;;;;;8.68;1.85;;;12.20;56.70;;;;;;5014070;28;20038;-74
2022/03/19 11:57:50;;;;;;;5.15;1.60;;;12.00;58.80;;;;;;5013360;28;20487;-75
2022/03/19 12:00:21;;;;;;;3.58;1.30;;;12.10;60.00;;;;;;5018050;28;20053;-74
2022/03/19 12:03:08;;;;;;;7.13;1.55;;;12.20;60.30;;;;;;5023174;28;20528;-75
2022/03/19 12:05:40;;;;;;;4.65;1.58;;;12.10;57.70;;;;;;5032801;28;20432;-74
2022/03/19 12:08:06;;;;;;;3.53;1.23;;;12.20;58.80;;;;;;5033820;28;20048;-74
2022/03/19 12:10:40;;;;;;;5.93;1.30;;;12.20;58.90;;;;;;5033286;28;20038;-74
2022/03/19 12:13:37;;;;;;;4.60;1.40;;;12.30;61.30;;;;;;5033848;28;20040;-74
2022/03/19 12:16:04;;;;;;;5.97;1.60;;;12.50;58.40;;;;;;5025118;28;20044;-74
2022/03/19 12:18:34;;;;;;;4.80;1.30;;;12.50;61.40;;;;;;5034202;28;20436;-74
2022/03/19 12:21:26;;;;;;;6.93;1.48;;;12.40;59.00;;;;;;5016955;28;20041;-74
2022/03/19 12:24:11;;;;;;;5.05;1.33;;;12.60;61.10;;;;;;5026508;28;20528;-75
2022/03/19 12:26:39;;;;;;;4.10;1.27;;;12.70;59.00;;;;;;5016816;28;20103;-74
2022/03/19 12:29:07;;;;;;;6.30;1.55;;;12.70;58.90;;;;;;5043533;28;20045;-74
2022/03/19 12:31:44;;;;;;;5.88;1.40;;;12.70;58.40;;;;;;5029988;28;20072;-74
2022/03/19 12:34:14;;;;;;;4.35;1.42;;;12.60;58.10;;;;;;5016731;28;20029;-75
2022/03/19 12:36:40;;;;;;;5.75;1.58;;;12.60;59.30;;;;;;5032056;28;20124;-74
2022/03/19 12:39:06;;;;;;;6.85;1.50;;;12.60;59.40;;;;;;5013651;28;20124;-75
2022/03/19 12:41:32;;;;;;;6.72;1.73;;;12.60;58.20;;;;;;5028232;28;20057;-74
2022/03/19 12:44:00;;;;;;;7.45;1.55;;;12.60;58.00;;;;;;5013579;28;20387;-74
2022/03/19 12:46:33;;;;;;;6.38;1.58;;;12.40;57.80;;;;;;5007311;28;20486;-74
2022/03/19 12:49:10;;;;;;;6.40;1.50;;;12.50;57.90;;;;;;5029615;28;20073;-74
2022/03/19 12:51:45;;;;;;;5.10;1.38;;;12.60;59.10;;;;;;5013213;28;20048;-74
2022/03/19 12:54:29;;;;;;;4.60;1.38;;;12.60;57.80;;;;;;5019406;28;20031;-74
2022/03/19 12:57:17;;;;;;;6.15;1.50;;;12.70;58.60;;;;;;5033241;28;20549;-74
2022/03/19 12:59:55;;;;;;;4.00;1.40;;;12.70;60.00;;;;;;5014009;28;20046;-74
2022/03/19 13:02:22;;;;;;;6.60;1.60;;;12.80;60.90;;;;;;5016494;28;20120;-74
2022/03/19 13:04:48;;;;;;;5.18;1.38;;;12.80;58.40;;;;;;5014239;28;20041;-74
2022/03/19 13:07:15;;;;;;;6.93;1.52;;;12.70;59.40;;;;;;5032820;28;20125;-74